Baltic Betina — 9HDW8 — position and weather

sailwx.info

Track history (hours):
 
Tides and Currents Weather Stations Pressure Air Temp Water Temp Dewpoint Dewpoint Depression Visibility Wind Speed Wind Dir Waves Ship Positions

Baltic Betina

Last reported at 2015-May-05 03:06 UTC. Time now 2015-May-05 17:18 UTC.
Position N 60°48' E 005°10'.

Length 89 m; draft 4.3 m.

Type: Ship. MMSI: 215869000.

Date/timePositionNaut miles runAvg speedWind from/ knotsBaromVisibWave heightAir tempDewpointWater temp
2015-May-05 03:06N 60°48' E 005°10'79 4.4
2015-May-04 09:13N 59°30' E 005°13'6 8.2
2015-May-04 08:33N 59°24' E 005°16'0 0.0
2015-May-04 07:33N 59°24' E 005°16'0 0.0
2015-May-04 06:33N 59°24' E 005°16'0 0.0
2015-May-04 05:33N 59°24' E 005°16'0 0.0
2015-May-04 04:33N 59°24' E 005°16'0 0.0
2015-May-04 03:33N 59°24' E 005°16'0 0.0
2015-May-04 02:33N 59°24' E 005°16'0 0.0
2015-May-04 01:33N 59°24' E 005°16'0 0.0
2015-May-04 00:33N 59°24' E 005°16'0 0.0
2015-May-03 23:32N 59°24' E 005°16'0 0.0
2015-May-03 22:32N 59°24' E 005°16'0 0.0
2015-May-03 21:32N 59°24' E 005°16'0 0.0
2015-May-03 20:32N 59°24' E 005°16'0 0.0
2015-May-03 19:32N 59°24' E 005°16'0 0.0
2015-May-03 18:32N 59°24' E 005°16'0 0.0
2015-May-03 16:06N 59°24' E 005°16'6 7.5
2015-May-03 15:22N 59°30' E 005°13'18 0.6
2015-May-02 10:30N 59°46' E 005°31'  
2015-Apr-28 08:04N 62°46' E 006°57'83 6.6
2015-Apr-27 19:32N 63°35' E 009°25'9 9.7
2015-Apr-27 18:34N 63°40' E 009°44'8 8.2
2015-Apr-27 17:33N 63°32' E 009°52'7 7.2
2015-Apr-27 16:34N 63°29' E 010°07'9 9.4
2015-Apr-27 15:33N 63°34' E 010°26'9 9.2
2015-Apr-27 14:34N 63°39' E 010°43'9 9.3
2015-Apr-27 13:33N 63°44' E 011°01'10 9.4
2015-Apr-27 12:32N 63°47' E 011°21'2 0.2
2015-Apr-27 00:16N 63°47' E 011°26'0 0.0
2015-Apr-26 08:06N 63°47' E 011°26'1 0.1
2015-Apr-25 18:05N 63°47' E 011°25'5 9.9
2015-Apr-25 17:33N 63°46' E 011°13'1010.1
2015-Apr-25 16:33N 63°41' E 010°53'1111.0
2015-Apr-25 15:33N 63°35' E 010°33'1110.6
2015-Apr-25 14:33N 63°30' E 010°12'8 7.8
2015-Apr-25 13:33N 63°31' E 009°54'10 9.0
2015-Apr-25 12:26N 63°39' E 009°39'5 6.1
2015-Apr-25 11:33N 63°43' E 009°31'2 2.0
2015-Apr-25 10:28N 63°44' E 009°36'0 0.0
2015-Apr-25 09:28N 63°44' E 009°36'0 0.0
2015-Apr-25 08:31N 63°44' E 009°36'0 0.0
2015-Apr-25 07:31N 63°44' E 009°36'0 0.0
2015-Apr-25 06:31N 63°44' E 009°36'0 0.0
2015-Apr-25 05:22N 63°44' E 009°36'0 0.0
2015-Apr-25 04:28N 63°44' E 009°36'0 0.0
2015-Apr-25 03:31N 63°44' E 009°36'  
Track history (hours):
 
Tides and Currents Weather Stations Pressure Air Temp Water Temp Dewpoint Dewpoint Depression Visibility Wind Speed Wind Dir Waves Ship Positions

Baltic Betina

Last reported at 2015-May-05 03:06 UTC. Time now 2015-May-05 17:18 UTC.
Position N 60°48' E 005°10'.

Length 89 m; draft 4.3 m.

Type: Ship. MMSI: 215869000.

Date/timePositionNaut miles runAvg speedWind from/ knotsBaromVisibWave heightAir tempDewpointWater temp
2015-May-05 03:06N 60°48' E 005°10'79 4.4
2015-May-04 09:13N 59°30' E 005°13'6 8.2
2015-May-04 08:33N 59°24' E 005°16'0 0.0
2015-May-04 07:33N 59°24' E 005°16'0 0.0
2015-May-04 06:33N 59°24' E 005°16'0 0.0
2015-May-04 05:33N 59°24' E 005°16'0 0.0
2015-May-04 04:33N 59°24' E 005°16'0 0.0
2015-May-04 03:33N 59°24' E 005°16'0 0.0
2015-May-04 02:33N 59°24' E 005°16'0 0.0
2015-May-04 01:33N 59°24' E 005°16'0 0.0
2015-May-04 00:33N 59°24' E 005°16'0 0.0
2015-May-03 23:32N 59°24' E 005°16'0 0.0
2015-May-03 22:32N 59°24' E 005°16'0 0.0
2015-May-03 21:32N 59°24' E 005°16'0 0.0
2015-May-03 20:32N 59°24' E 005°16'0 0.0
2015-May-03 19:32N 59°24' E 005°16'0 0.0
2015-May-03 18:32N 59°24' E 005°16'0 0.0
2015-May-03 16:06N 59°24' E 005°16'6 7.5
2015-May-03 15:22N 59°30' E 005°13'18 0.6
2015-May-02 10:30N 59°46' E 005°31'  
2015-Apr-28 08:04N 62°46' E 006°57'83 6.6
2015-Apr-27 19:32N 63°35' E 009°25'9 9.7
2015-Apr-27 18:34N 63°40' E 009°44'8 8.2
2015-Apr-27 17:33N 63°32' E 009°52'7 7.2
2015-Apr-27 16:34N 63°29' E 010°07'9 9.4
2015-Apr-27 15:33N 63°34' E 010°26'9 9.2
2015-Apr-27 14:34N 63°39' E 010°43'9 9.3
2015-Apr-27 13:33N 63°44' E 011°01'10 9.4
2015-Apr-27 12:32N 63°47' E 011°21'2 0.2
2015-Apr-27 00:16N 63°47' E 011°26'0 0.0
2015-Apr-26 08:06N 63°47' E 011°26'1 0.1
2015-Apr-25 18:05N 63°47' E 011°25'5 9.9
2015-Apr-25 17:33N 63°46' E 011°13'1010.1
2015-Apr-25 16:33N 63°41' E 010°53'1111.0
2015-Apr-25 15:33N 63°35' E 010°33'1110.6
2015-Apr-25 14:33N 63°30' E 010°12'8 7.8
2015-Apr-25 13:33N 63°31' E 009°54'10 9.0
2015-Apr-25 12:26N 63°39' E 009°39'5 6.1
2015-Apr-25 11:33N 63°43' E 009°31'2 2.0
2015-Apr-25 10:28N 63°44' E 009°36'0 0.0
2015-Apr-25 09:28N 63°44' E 009°36'0 0.0
2015-Apr-25 08:31N 63°44' E 009°36'0 0.0
2015-Apr-25 07:31N 63°44' E 009°36'0 0.0
2015-Apr-25 06:31N 63°44' E 009°36'0 0.0
2015-Apr-25 05:22N 63°44' E 009°36'0 0.0
2015-Apr-25 04:28N 63°44' E 009°36'0 0.0
2015-Apr-25 03:31N 63°44' E 009°36'  

Dump ship's entire track history